sensor_id;sensor_type;location;lat;lon;timestamp;pressure;altitude;pressure_sealevel;temperature;humidity
60355;BME280;46198;51.464;-0.066;2023-02-11T00:01:37;103498.38;;;8.26;100.00
60355;BME280;46198;51.464;-0.066;2023-02-11T00:04:05;103489.69;;;8.32;100.00
60355;BME280;46198;51.464;-0.066;2023-02-11T00:06:34;103495.56;;;8.37;100.00
60355;BME280;46198;51.464;-0.066;2023-02-11T00:09:04;103498.84;;;8.31;100.00
60355;BME280;46198;51.464;-0.066;2023-02-11T00:11:33;103493.25;;;8.33;100.00
60355;BME280;46198;51.464;-0.066;2023-02-11T00:14:03;103506.09;;;8.31;100.00
60355;BME280;46198;51.464;-0.066;2023-02-11T00:16:35;103501.25;;;8.34;100.00
60355;BME280;46198;51.464;-0.066;2023-02-11T00:19:03;103513.78;;;8.35;100.00
60355;BME280;46198;51.464;-0.066;2023-02-11T00:21:32;103504.69;;;8.36;100.00
60355;BME280;46198;51.464;-0.066;2023-02-11T00:24:01;103508.09;;;8.38;100.00
60355;BME280;46198;51.464;-0.066;2023-02-11T00:26:31;103509.00;;;8.39;100.00
60355;BME280;46198;51.464;-0.066;2023-02-11T00:29:00;103512.56;;;8.39;100.00
60355;BME280;46198;51.464;-0.066;2023-02-11T00:31:30;103512.81;;;8.36;100.00
60355;BME280;46198;51.464;-0.066;2023-02-11T00:34:00;103510.09;;;8.36;100.00
60355;BME280;46198;51.464;-0.066;2023-02-11T00:36:28;103509.00;;;8.39;100.00
60355;BME280;46198;51.464;-0.066;2023-02-11T00:38:59;103501.44;;;8.42;100.00
60355;BME280;46198;51.464;-0.066;2023-02-11T00:41:27;103507.88;;;8.41;100.00
60355;BME280;46198;51.464;-0.066;2023-02-11T00:43:59;103509.69;;;8.41;100.00
60355;BME280;46198;51.464;-0.066;2023-02-11T00:46:27;103507.16;;;8.39;100.00
60355;BME280;46198;51.464;-0.066;2023-02-11T00:48:59;103516.22;;;8.38;100.00
60355;BME280;46198;51.464;-0.066;2023-02-11T00:51:29;103517.22;;;8.37;100.00
60355;BME280;46198;51.464;-0.066;2023-02-11T00:53:57;103519.19;;;8.35;100.00
60355;BME280;46198;51.464;-0.066;2023-02-11T00:56:26;103519.19;;;8.35;100.00
60355;BME280;46198;51.464;-0.066;2023-02-11T00:58:55;103513.22;;;8.32;100.00
60355;BME280;46198;51.464;-0.066;2023-02-11T01:01:23;103509.00;;;8.39;100.00
60355;BME280;46198;51.464;-0.066;2023-02-11T01:03:51;103512.81;;;8.36;100.00
60355;BME280;46198;51.464;-0.066;2023-02-11T01:06:23;103505.28;;;8.40;100.00
60355;BME280;46198;51.464;-0.066;2023-02-11T01:08:51;103509.00;;;8.39;100.00
60355;BME280;46198;51.464;-0.066;2023-02-11T01:11:22;103506.38;;;8.37;100.00
60355;BME280;46198;51.464;-0.066;2023-02-11T01:13:50;103516.97;;;8.40;100.00
60355;BME280;46198;51.464;-0.066;2023-02-11T01:16:19;103510.09;;;8.36;100.00
60355;BME280;46198;51.464;-0.066;2023-02-11T01:18:48;103510.09;;;8.36;100.00
60355;BME280;46198;51.464;-0.066;2023-02-11T01:21:16;103512.41;;;8.41;100.00
60355;BME280;46198;51.464;-0.066;2023-02-11T01:23:46;103508.25;;;8.37;100.00
60355;BME280;46198;51.464;-0.066;2023-02-11T01:26:14;103511.06;;;8.35;100.00
60355;BME280;46198;51.464;-0.066;2023-02-11T01:28:42;103513.50;;;8.38;100.00
60355;BME280;46198;51.464;-0.066;2023-02-11T01:31:10;103509.84;;;8.39;100.00
60355;BME280;46198;51.464;-0.066;2023-02-11T01:33:38;103507.41;;;8.36;100.00
60355;BME280;46198;51.464;-0.066;2023-02-11T01:36:10;103500.97;;;8.37;100.00
60355;BME280;46198;51.464;-0.066;2023-02-11T01:38:38;103500.97;;;8.37;100.00
60355;BME280;46198;51.464;-0.066;2023-02-11T01:41:10;103502.97;;;8.35;100.00
60355;BME280;46198;51.464;-0.066;2023-02-11T01:43:40;103492.69;;;8.29;100.00
60355;BME280;46198;51.464;-0.066;2023-02-11T01:46:16;103499.41;;;8.25;100.00
60355;BME280;46198;51.464;-0.066;2023-02-11T01:48:49;103496.53;;;8.27;100.00
60355;BME280;46198;51.464;-0.066;2023-02-11T01:51:22;103493.09;;;8.25;100.00
60355;BME280;46198;51.464;-0.066;2023-02-11T01:53:52;103492.09;;;8.16;100.00
60355;BME280;46198;51.464;-0.066;2023-02-11T01:56:43;103495.97;;;8.23;100.00
60355;BME280;46198;51.464;-0.066;2023-02-11T01:59:37;103486.56;;;8.27;100.00
60355;BME280;46198;51.464;-0.066;2023-02-11T02:02:10;103489.13;;;8.29;100.00
60355;BME280;46198;51.464;-0.066;2023-02-11T02:04:45;103483.72;;;8.29;100.00
60355;BME280;46198;51.464;-0.066;2023-02-11T02:07:19;103482.16;;;8.26;100.00
60355;BME280;46198;51.464;-0.066;2023-02-11T02:09:57;103477.75;;;8.25;100.00
60355;BME280;46198;51.464;-0.066;2023-02-11T02:12:29;103489.53;;;8.24;100.00
60355;BME280;46198;51.464;-0.066;2023-02-11T02:15:19;103492.97;;;8.26;100.00
60355;BME280;46198;51.464;-0.066;2023-02-11T02:17:51;103486.13;;;8.22;100.00
60355;BME280;46198;51.464;-0.066;2023-02-11T02:23:35;103487.56;;;8.26;100.00
60355;BME280;46198;51.464;-0.066;2023-02-11T02:26:23;103486.28;;;8.20;100.00
60355;BME280;46198;51.464;-0.066;2023-02-11T02:29:17;103485.53;;;8.18;100.00
60355;BME280;46198;51.464;-0.066;2023-02-11T02:31:58;103489.53;;;8.24;100.00
60355;BME280;46198;51.464;-0.066;2023-02-11T02:34:35;103476.44;;;8.29;100.00
60355;BME280;46198;51.464;-0.066;2023-02-11T02:37:08;103477.03;;;8.23;100.00
60355;BME280;46198;51.464;-0.066;2023-02-11T02:39:39;103478.88;;;8.23;100.00
60355;BME280;46198;51.464;-0.066;2023-02-11T02:42:08;103476.75;;;8.26;100.00
60355;BME280;46198;51.464;-0.066;2023-02-11T02:44:36;103471.16;;;8.28;100.00
60355;BME280;46198;51.464;-0.066;2023-02-11T02:47:04;103471.75;;;8.31;100.00
60355;BME280;46198;51.464;-0.066;2023-02-11T02:49:34;103471.88;;;8.30;100.00
60355;BME280;46198;51.464;-0.066;2023-02-11T02:52:30;103470.75;;;8.32;100.00
60355;BME280;46198;51.464;-0.066;2023-02-11T02:55:19;103463.94;;;8.28;100.00
60355;BME280;46198;51.464;-0.066;2023-02-11T03:00:55;103462.19;;;8.27;100.00
60355;BME280;46198;51.464;-0.066;2023-02-11T03:03:31;103459.22;;;8.20;100.00
60355;BME280;46198;51.464;-0.066;2023-02-11T03:06:07;103463.91;;;8.18;100.00
60355;BME280;46198;51.464;-0.066;2023-02-11T03:08:41;103466.47;;;8.20;100.00
60355;BME280;46198;51.464;-0.066;2023-02-11T03:11:35;103454.63;;;8.21;100.00
60355;BME280;46198;51.464;-0.066;2023-02-11T03:14:08;103453.91;;;8.19;100.00
60355;BME280;46198;51.464;-0.066;2023-02-11T03:16:38;103442.53;;;8.15;100.00
60355;BME280;46198;51.464;-0.066;2023-02-11T03:19:11;103448.50;;;8.19;100.00
60355;BME280;46198;51.464;-0.066;2023-02-11T03:21:42;103449.63;;;8.16;100.00
60355;BME280;46198;51.464;-0.066;2023-02-11T03:24:15;103452.50;;;8.15;100.00
60355;BME280;46198;51.464;-0.066;2023-02-11T03:26:47;103449.19;;;8.11;100.00
60355;BME280;46198;51.464;-0.066;2023-02-11T03:29:22;103441.09;;;8.11;100.00
60355;BME280;46198;51.464;-0.066;2023-02-11T03:32:00;103441.66;;;8.05;100.00
60355;BME280;46198;51.464;-0.066;2023-02-11T03:34:34;103451.06;;;8.01;100.00
60355;BME280;46198;51.464;-0.066;2023-02-11T03:37:08;103447.75;;;7.97;100.00
60355;BME280;46198;51.464;-0.066;2023-02-11T03:39:45;103452.31;;;7.97;100.00
60355;BME280;46198;51.464;-0.066;2023-02-11T03:42:14;103452.47;;;7.95;100.00
60355;BME280;46198;51.464;-0.066;2023-02-11T03:44:48;103460.13;;;7.90;100.00
60355;BME280;46198;51.464;-0.066;2023-02-11T03:47:22;103454.72;;;7.90;100.00
60355;BME280;46198;51.464;-0.066;2023-02-11T03:49:53;103441.88;;;7.83;100.00
60355;BME280;46198;51.464;-0.066;2023-02-11T03:52:24;103448.03;;;7.85;100.00
60355;BME280;46198;51.464;-0.066;2023-02-11T03:54:56;103441.88;;;7.83;100.00
60355;BME280;46198;51.464;-0.066;2023-02-11T03:57:25;103437.59;;;7.80;100.00
60355;BME280;46198;51.464;-0.066;2023-02-11T03:59:54;103442.84;;;7.72;100.00
60355;BME280;46198;51.464;-0.066;2023-02-11T04:02:25;103443.84;;;7.71;100.00
60355;BME280;46198;51.464;-0.066;2023-02-11T04:04:54;103449.50;;;7.68;100.00
60355;BME280;46198;51.464;-0.066;2023-02-11T04:07:24;103451.22;;;7.69;100.00
60355;BME280;46198;51.464;-0.066;2023-02-11T04:09:52;103458.03;;;7.63;100.00
60355;BME280;46198;51.464;-0.066;2023-02-11T04:12:20;103459.16;;;7.61;100.00
60355;BME280;46198;51.464;-0.066;2023-02-11T04:14:48;103466.94;;;7.54;100.00
60355;BME280;46198;51.464;-0.066;2023-02-11T04:17:17;103464.25;;;7.54;100.00
60355;BME280;46198;51.464;-0.066;2023-02-11T04:19:45;103460.69;;;7.53;100.00
60355;BME280;46198;51.464;-0.066;2023-02-11T04:22:13;103462.53;;;7.53;100.00
60355;BME280;46198;51.464;-0.066;2023-02-11T04:24:42;103461.69;;;7.52;100.00
60355;BME280;46198;51.464;-0.066;2023-02-11T04:27:11;103463.28;;;7.55;100.00
60355;BME280;46198;51.464;-0.066;2023-02-11T04:29:39;103456.88;;;7.56;100.00
60355;BME280;46198;51.464;-0.066;2023-02-11T04:32:07;103461.16;;;7.59;100.00
60355;BME280;46198;51.464;-0.066;2023-02-11T04:34:36;103472.53;;;7.62;100.00
60355;BME280;46198;51.464;-0.066;2023-02-11T04:37:04;103472.25;;;7.65;100.00
60355;BME280;46198;51.464;-0.066;2023-02-11T04:39:32;103473.72;;;7.69;100.00
60355;BME280;46198;51.464;-0.066;2023-02-11T04:42:02;103469.31;;;7.68;100.00
60355;BME280;46198;51.464;-0.066;2023-02-11T04:44:30;103474.56;;;7.70;100.00
60355;BME280;46198;51.464;-0.066;2023-02-11T04:46:58;103472.31;;;7.75;100.00
60355;BME280;46198;51.464;-0.066;2023-02-11T04:49:27;103472.03;;;7.78;100.00
60355;BME280;46198;51.464;-0.066;2023-02-11T04:51:55;103481.88;;;7.79;100.00
60355;BME280;46198;51.464;-0.066;2023-02-11T04:54:24;103481.88;;;7.79;100.00
60355;BME280;46198;51.464;-0.066;2023-02-11T04:56:52;103490.56;;;7.83;100.00
60355;BME280;46198;51.464;-0.066;2023-02-11T04:59:22;103483.75;;;7.88;100.00
60355;BME280;46198;51.464;-0.066;2023-02-11T05:01:51;103481.34;;;7.95;100.00
60355;BME280;46198;51.464;-0.066;2023-02-11T05:04:19;103480.66;;;7.93;100.00
60355;BME280;46198;51.464;-0.066;2023-02-11T05:06:47;103483.53;;;8.01;100.00
60355;BME280;46198;51.464;-0.066;2023-02-11T05:09:15;103484.94;;;7.95;100.00
60355;BME280;46198;51.464;-0.066;2023-02-11T05:11:43;103483.19;;;7.94;100.00
60355;BME280;46198;51.464;-0.066;2023-02-11T05:14:12;103490.34;;;7.95;100.00
60355;BME280;46198;51.464;-0.066;2023-02-11T05:16:41;103481.34;;;7.95;100.00
60355;BME280;46198;51.464;-0.066;2023-02-11T05:19:09;103474.81;;;7.97;100.00
60355;BME280;46198;51.464;-0.066;2023-02-11T05:21:38;103482.06;;;7.97;100.00
60355;BME280;46198;51.464;-0.066;2023-02-11T05:24:22;103482.63;;;8.00;100.00
60355;BME280;46198;51.464;-0.066;2023-02-11T05:26:50;103490.91;;;7.99;100.00
60355;BME280;46198;51.464;-0.066;2023-02-11T05:29:18;103492.50;;;8.02;100.00
60355;BME280;46198;51.464;-0.066;2023-02-11T05:31:48;103499.75;;;8.11;100.00
60355;BME280;46198;51.464;-0.066;2023-02-11T05:34:16;103503.31;;;8.11;100.00
60355;BME280;46198;51.464;-0.066;2023-02-11T05:36:44;103501.63;;;8.10;100.00
60355;BME280;46198;51.464;-0.066;2023-02-11T05:39:12;103497.50;;;8.06;100.00
60355;BME280;46198;51.464;-0.066;2023-02-11T05:41:40;103492.66;;;8.10;100.00
60355;BME280;46198;51.464;-0.066;2023-02-11T05:44:08;103488.22;;;8.09;100.00
60355;BME280;46198;51.464;-0.066;2023-02-11T05:46:36;103487.81;;;8.04;100.00
60355;BME280;46198;51.464;-0.066;2023-02-11T05:49:06;103479.53;;;8.05;100.00
60355;BME280;46198;51.464;-0.066;2023-02-11T05:51:34;103486.25;;;8.11;100.00
60355;BME280;46198;51.464;-0.066;2023-02-11T05:54:02;103485.50;;;8.09;100.00
60355;BME280;46198;51.464;-0.066;2023-02-11T05:56:31;103484.81;;;8.07;100.00
60355;BME280;46198;51.464;-0.066;2023-02-11T05:58:59;103480.38;;;8.06;100.00
60355;BME280;46198;51.464;-0.066;2023-02-11T06:01:28;103474.69;;;8.09;100.00
60355;BME280;46198;51.464;-0.066;2023-02-11T06:03:56;103475.00;;;8.15;100.00
60355;BME280;46198;51.464;-0.066;2023-02-11T06:06:26;103477.72;;;8.15;100.00
60355;BME280;46198;51.464;-0.066;2023-02-11T06:08:54;103480.69;;;8.12;100.00
60355;BME280;46198;51.464;-0.066;2023-02-11T06:11:22;103475.56;;;8.19;100.00
60355;BME280;46198;51.464;-0.066;2023-02-11T06:13:51;103479.00;;;8.21;100.00
60355;BME280;46198;51.464;-0.066;2023-02-11T06:16:19;103482.84;;;8.18;100.00
60355;BME280;46198;51.464;-0.066;2023-02-11T06:18:47;103485.53;;;8.18;100.00
60355;BME280;46198;51.464;-0.066;2023-02-11T06:21:15;103481.25;;;8.16;100.00
60355;BME280;46198;51.464;-0.066;2023-02-11T06:23:44;103492.81;;;8.18;100.00
60355;BME280;46198;51.464;-0.066;2023-02-11T06:26:16;103485.94;;;8.14;100.00
60355;BME280;46198;51.464;-0.066;2023-02-11T06:28:45;103488.66;;;8.14;100.00
60355;BME280;46198;51.464;-0.066;2023-02-11T06:31:13;103489.94;;;8.10;100.00
60355;BME280;46198;51.464;-0.066;2023-02-11T06:33:42;103484.69;;;8.18;100.00
60355;BME280;46198;51.464;-0.066;2023-02-11T06:36:12;103489.38;;;8.16;100.00
60355;BME280;46198;51.464;-0.066;2023-02-11T06:38:41;103492.81;;;8.18;100.00
60355;BME280;46198;51.464;-0.066;2023-02-11T06:41:12;103499.66;;;8.22;100.00
60355;BME280;46198;51.464;-0.066;2023-02-11T06:43:41;103496.94;;;8.22;100.00
60355;BME280;46198;51.464;-0.066;2023-02-11T06:46:09;103508.50;;;8.24;100.00
60355;BME280;46198;51.464;-0.066;2023-02-11T06:48:37;103501.66;;;8.20;100.00
60355;BME280;46198;51.464;-0.066;2023-02-11T06:51:07;103504.38;;;8.20;100.00
60355;BME280;46198;51.464;-0.066;2023-02-11T06:53:37;103508.63;;;8.13;100.00
60355;BME280;46198;51.464;-0.066;2023-02-11T06:56:08;103507.78;;;8.22;100.00
60355;BME280;46198;51.464;-0.066;2023-02-11T06:58:37;103516.03;;;8.20;100.00
60355;BME280;46198;51.464;-0.066;2023-02-11T07:01:07;103520.44;;;8.21;100.00
60355;BME280;46198;51.464;-0.066;2023-02-11T07:03:39;103523.88;;;8.24;100.00
60355;BME280;46198;51.464;-0.066;2023-02-11T07:06:11;103523.31;;;8.20;100.00
60355;BME280;46198;51.464;-0.066;2023-02-11T07:08:40;103528.44;;;8.23;100.00
60355;BME280;46198;51.464;-0.066;2023-02-11T07:11:13;103523.75;;;8.25;100.00
60355;BME280;46198;51.464;-0.066;2023-02-11T07:13:43;103526.88;;;8.30;100.00
60355;BME280;46198;51.464;-0.066;2023-02-11T07:16:13;103536.00;;;8.29;100.00
60355;BME280;46198;51.464;-0.066;2023-02-11T07:18:42;103537.00;;;8.28;100.00
60355;BME280;46198;51.464;-0.066;2023-02-11T07:21:12;103545.69;;;8.32;100.00
60355;BME280;46198;51.464;-0.066;2023-02-11T07:23:41;103540.41;;;8.30;100.00
60355;BME280;46198;51.464;-0.066;2023-02-11T07:26:11;103542.59;;;8.36;100.00
60355;BME280;46198;51.464;-0.066;2023-02-11T07:28:40;103549.66;;;8.28;100.00
60355;BME280;46198;51.464;-0.066;2023-02-11T07:31:14;103553.69;;;8.33;100.00
60355;BME280;46198;51.464;-0.066;2023-02-11T07:33:43;103549.72;;;8.37;100.00
60355;BME280;46198;51.464;-0.066;2023-02-11T07:36:13;103551.69;;;8.35;100.00
60355;BME280;46198;51.464;-0.066;2023-02-11T07:38:41;103554.28;;;8.37;100.00
60355;BME280;46198;51.464;-0.066;2023-02-11T07:41:11;103556.13;;;8.36;100.00
60355;BME280;46198;51.464;-0.066;2023-02-11T07:43:41;103558.59;;;8.39;100.00
60355;BME280;46198;51.464;-0.066;2023-02-11T07:46:10;103560.81;;;8.34;100.00
60355;BME280;46198;51.464;-0.066;2023-02-11T07:48:40;103550.72;;;8.36;100.00
60355;BME280;46198;51.464;-0.066;2023-02-11T07:51:10;103548.28;;;8.33;100.00
60355;BME280;46198;51.464;-0.066;2023-02-11T07:53:39;103540.84;;;8.35;100.00
60355;BME280;46198;51.464;-0.066;2023-02-11T07:56:08;103544.03;;;8.40;100.00
60355;BME280;46198;51.464;-0.066;2023-02-11T07:58:38;103549.47;;;8.40;100.00
60355;BME280;46198;51.464;-0.066;2023-02-11T08:01:10;103551.03;;;8.43;100.00
60355;BME280;46198;51.464;-0.066;2023-02-11T08:03:40;103546.28;;;8.35;100.00
60355;BME280;46198;51.464;-0.066;2023-02-11T08:06:10;103545.56;;;8.33;100.00
60355;BME280;46198;51.464;-0.066;2023-02-11T08:08:38;103546.00;;;8.38;100.00
60355;BME280;46198;51.464;-0.066;2023-02-11T08:11:07;103552.88;;;8.42;100.00
60355;BME280;46198;51.464;-0.066;2023-02-11T08:13:36;103557.47;;;8.42;100.00
60355;BME280;46198;51.464;-0.066;2023-02-11T08:16:05;103551.19;;;8.41;100.00
60355;BME280;46198;51.464;-0.066;2023-02-11T08:18:34;103552.03;;;8.42;100.00
60355;BME280;46198;51.464;-0.066;2023-02-11T08:21:05;103545.78;;;8.41;100.00
60355;BME280;46198;51.464;-0.066;2023-02-11T08:23:34;103548.31;;;8.43;100.00
60355;BME280;46198;51.464;-0.066;2023-02-11T08:26:03;103545.78;;;8.41;100.00
60355;BME280;46198;51.464;-0.066;2023-02-11T08:28:34;103548.03;;;8.46;100.00
60355;BME280;46198;51.464;-0.066;2023-02-11T08:31:04;103552.03;;;8.52;100.00
60355;BME280;46198;51.464;-0.066;2023-02-11T08:33:32;103560.03;;;8.53;100.00
60355;BME280;46198;51.464;-0.066;2023-02-11T08:36:01;103563.59;;;8.54;100.00
60355;BME280;46198;51.464;-0.066;2023-02-11T08:38:30;103560.03;;;8.53;100.00
60355;BME280;46198;51.464;-0.066;2023-02-11T08:40:59;103557.47;;;8.52;100.00
60355;BME280;46198;51.464;-0.066;2023-02-11T08:43:27;103558.91;;;8.56;100.00
60355;BME280;46198;51.464;-0.066;2023-02-11T08:45:55;103559.63;;;8.58;100.00
60355;BME280;46198;51.464;-0.066;2023-02-11T08:48:27;103571.59;;;8.65;100.00
60355;BME280;46198;51.464;-0.066;2023-02-11T08:50:55;103568.31;;;8.71;100.00
60355;BME280;46198;51.464;-0.066;2023-02-11T08:53:24;103570.47;;;8.68;100.00
60355;BME280;46198;51.464;-0.066;2023-02-11T08:55:54;103556.50;;;8.72;100.00
60355;BME280;46198;51.464;-0.066;2023-02-11T08:58:22;103555.22;;;8.76;100.00
60355;BME280;46198;51.464;-0.066;2023-02-11T09:00:50;103553.38;;;8.77;100.00
60355;BME280;46198;51.464;-0.066;2023-02-11T09:03:19;103549.34;;;8.71;100.00
60355;BME280;46198;51.464;-0.066;2023-02-11T09:05:48;103565.19;;;8.76;100.00
60355;BME280;46198;51.464;-0.066;2023-02-11T09:08:19;103568.34;;;8.81;100.00
60355;BME280;46198;51.464;-0.066;2023-02-11T09:10:48;103577.75;;;8.77;100.00
60355;BME280;46198;51.464;-0.066;2023-02-11T09:13:19;103568.22;;;8.82;100.00
60355;BME280;46198;51.464;-0.066;2023-02-11T09:15:49;103572.34;;;8.86;100.00
60355;BME280;46198;51.464;-0.066;2023-02-11T09:18:18;103566.06;;;8.86;100.00
60355;BME280;46198;51.464;-0.066;2023-02-11T09:20:46;103562.34;;;8.87;100.00
60355;BME280;46198;51.464;-0.066;2023-02-11T09:23:16;103571.78;;;8.93;100.00
60355;BME280;46198;51.464;-0.066;2023-02-11T09:25:44;103568.06;;;8.94;100.00
60355;BME280;46198;51.464;-0.066;2023-02-11T09:28:13;103564.78;;;9.00;100.00
60355;BME280;46198;51.464;-0.066;2023-02-11T09:30:43;103561.78;;;9.03;100.00
60355;BME280;46198;51.464;-0.066;2023-02-11T09:33:11;103571.50;;;9.05;100.00
60355;BME280;46198;51.464;-0.066;2023-02-11T09:35:39;103567.63;;;8.98;100.00
60355;BME280;46198;51.464;-0.066;2023-02-11T09:38:07;103570.78;;;9.03;100.00
60355;BME280;46198;51.464;-0.066;2023-02-11T09:40:35;103582.91;;;9.09;100.00
60355;BME280;46198;51.464;-0.066;2023-02-11T09:43:06;103574.63;;;9.01;100.00
60355;BME280;46198;51.464;-0.066;2023-02-11T09:45:35;103578.34;;;9.09;100.00
60355;BME280;46198;51.464;-0.066;2023-02-11T09:48:12;103568.94;;;9.04;100.00
60355;BME280;46198;51.464;-0.066;2023-02-11T09:50:44;103577.63;;;9.07;100.00
60355;BME280;46198;51.464;-0.066;2023-02-11T09:53:18;103582.34;;;9.15;100.00
60355;BME280;46198;51.464;-0.066;2023-02-11T09:55:51;103586.03;;;9.24;100.00
60355;BME280;46198;51.464;-0.066;2023-02-11T09:58:25;103576.63;;;9.18;100.00
60355;BME280;46198;51.464;-0.066;2023-02-11T10:01:01;103586.59;;;9.27;100.00
60355;BME280;46198;51.464;-0.066;2023-02-11T10:03:47;103587.03;;;9.32;100.00
60355;BME280;46198;51.464;-0.066;2023-02-11T10:06:36;103575.47;;;9.30;100.00
60355;BME280;46198;51.464;-0.066;2023-02-11T10:09:15;103582.59;;;9.41;100.00
60355;BME280;46198;51.464;-0.066;2023-02-11T10:11:51;103581.19;;;9.37;100.00
60355;BME280;46198;51.464;-0.066;2023-02-11T10:14:48;103579.31;;;9.38;100.00
60355;BME280;46198;51.464;-0.066;2023-02-11T10:17:28;103577.88;;;9.43;100.00
60355;BME280;46198;51.464;-0.066;2023-02-11T10:20:12;103573.03;;;9.47;100.00
60355;BME280;46198;51.464;-0.066;2023-02-11T10:22:46;103573.91;;;9.47;100.00
60355;BME280;46198;51.464;-0.066;2023-02-11T10:25:21;103580.59;;;9.43;100.00
60355;BME280;46198;51.464;-0.066;2023-02-11T10:27:51;103583.16;;;9.54;100.00
60355;BME280;46198;51.464;-0.066;2023-02-11T10:30:27;103581.88;;;9.59;100.00
60355;BME280;46198;51.464;-0.066;2023-02-11T10:33:02;103589.16;;;9.48;100.00
60355;BME280;46198;51.464;-0.066;2023-02-11T10:35:32;103591.44;;;9.43;100.00
60355;BME280;46198;51.464;-0.066;2023-02-11T10:38:00;103591.16;;;9.56;100.00
60355;BME280;46198;51.464;-0.066;2023-02-11T10:40:30;103594.72;;;9.57;100.00
60355;BME280;46198;51.464;-0.066;2023-02-11T10:43:02;103597.31;;;9.58;100.00
60355;BME280;46198;51.464;-0.066;2023-02-11T10:45:32;103604.84;;;9.64;100.00
60355;BME280;46198;51.464;-0.066;2023-02-11T10:48:02;103607.09;;;9.79;100.00
60355;BME280;46198;51.464;-0.066;2023-02-11T10:50:33;103603.94;;;9.73;100.00
60355;BME280;46198;51.464;-0.066;2023-02-11T10:53:11;103598.53;;;9.73;100.00
60355;BME280;46198;51.464;-0.066;2023-02-11T10:55:48;103601.66;;;9.79;100.00
60355;BME280;46198;51.464;-0.066;2023-02-11T10:58:23;103602.81;;;9.76;100.00
60355;BME280;46198;51.464;-0.066;2023-02-11T11:00:54;103607.09;;;9.79;100.00
60355;BME280;46198;51.464;-0.066;2023-02-11T11:03:24;103607.09;;;9.79;100.00
60355;BME280;46198;51.464;-0.066;2023-02-11T11:05:56;103604.41;;;9.59;100.00
60355;BME280;46198;51.464;-0.066;2023-02-11T11:08:37;103595.81;;;9.73;100.00
60355;BME280;46198;51.464;-0.066;2023-02-11T11:11:07;103607.69;;;9.72;100.00
60355;BME280;46198;51.464;-0.066;2023-02-11T11:13:37;103608.66;;;9.71;100.00
60355;BME280;46198;51.464;-0.066;2023-02-11T11:16:18;103610.81;;;9.77;100.00
60355;BME280;46198;51.464;-0.066;2023-02-11T11:18:47;103607.81;;;9.81;100.00
60355;BME280;46198;51.464;-0.066;2023-02-11T11:21:21;103603.09;;;9.73;100.00
60355;BME280;46198;51.464;-0.066;2023-02-11T11:23:54;103607.94;;;9.89;100.00
60355;BME280;46198;51.464;-0.066;2023-02-11T11:26:23;103606.47;;;9.94;100.00
60355;BME280;46198;51.464;-0.066;2023-02-11T11:28:56;103606.72;;;10.01;100.00
60355;BME280;46198;51.464;-0.066;2023-02-11T11:31:29;103593.91;;;9.93;100.00
60355;BME280;46198;51.464;-0.066;2023-02-11T11:34:00;103595.47;;;9.96;100.00
60355;BME280;46198;51.464;-0.066;2023-02-11T11:36:34;103592.78;;;9.86;100.00
60355;BME280;46198;51.464;-0.066;2023-02-11T11:39:16;103591.47;;;10.00;100.00
60355;BME280;46198;51.464;-0.066;2023-02-11T11:41:50;103601.28;;;10.01;100.00
60355;BME280;46198;51.464;-0.066;2023-02-11T11:44:27;103596.47;;;9.95;100.00
60355;BME280;46198;51.464;-0.066;2023-02-11T11:50:29;103603.88;;;10.03;100.00
60355;BME280;46198;51.464;-0.066;2023-02-11T11:53:04;103592.28;;;10.10;100.00
60355;BME280;46198;51.464;-0.066;2023-02-11T11:55:39;103589.19;;;10.23;100.00
60355;BME280;46198;51.464;-0.066;2023-02-11T11:58:13;103589.06;;;10.25;100.00
60355;BME280;46198;51.464;-0.066;2023-02-11T12:00:49;103593.47;;;10.26;100.00
60355;BME280;46198;51.464;-0.066;2023-02-11T12:06:40;103602.06;;;10.31;100.00
60355;BME280;46198;51.464;-0.066;2023-02-11T12:09:22;103590.38;;;10.20;100.00
60355;BME280;46198;51.464;-0.066;2023-02-11T12:12:05;103590.09;;;10.24;100.00
60355;BME280;46198;51.464;-0.066;2023-02-11T12:14:42;103587.19;;;10.35;100.00
60355;BME280;46198;51.464;-0.066;2023-02-11T12:17:25;103587.44;;;10.41;100.00
60355;BME280;46198;51.464;-0.066;2023-02-11T12:20:13;103583.91;;;10.31;100.00
60355;BME280;46198;51.464;-0.066;2023-02-11T12:22:53;103579.19;;;10.33;100.00
60355;BME280;46198;51.464;-0.066;2023-02-11T12:25:28;103571.41;;;10.48;100.00
60355;BME280;46198;51.464;-0.066;2023-02-11T12:28:18;103581.34;;;10.57;100.00
60355;BME280;46198;51.464;-0.066;2023-02-11T12:30:59;103585.97;;;10.47;100.00
60355;BME280;46198;51.464;-0.066;2023-02-11T12:33:46;103579.06;;;10.53;100.00
60355;BME280;46198;51.464;-0.066;2023-02-11T12:36:31;103578.06;;;10.26;100.00
60355;BME280;46198;51.464;-0.066;2023-02-11T12:39:09;103580.78;;;10.26;100.00
60355;BME280;46198;51.464;-0.066;2023-02-11T12:41:48;103582.16;;;10.40;100.00
60355;BME280;46198;51.464;-0.066;2023-02-11T12:44:41;103580.53;;;10.47;100.00
60355;BME280;46198;51.464;-0.066;2023-02-11T12:47:20;103583.06;;;10.31;100.00
60355;BME280;46198;51.464;-0.066;2023-02-11T12:53:30;103580.91;;;10.25;100.00
60355;BME280;46198;51.464;-0.066;2023-02-11T12:56:04;103578.03;;;10.36;100.00
60355;BME280;46198;51.464;-0.066;2023-02-11T12:58:37;103573.81;;;10.51;100.00
60355;BME280;46198;51.464;-0.066;2023-02-11T13:01:19;103578.94;;;10.54;100.00
60355;BME280;46198;51.464;-0.066;2023-02-11T13:03:53;103573.34;;;10.56;100.00
60355;BME280;46198;51.464;-0.066;2023-02-11T13:06:27;103574.66;;;10.52;100.00
60355;BME280;46198;51.464;-0.066;2023-02-11T13:08:59;103577.72;;;10.39;100.00
60355;BME280;46198;51.464;-0.066;2023-02-11T13:11:31;103570.38;;;10.49;100.00
60355;BME280;46198;51.464;-0.066;2023-02-11T13:14:04;103567.13;;;10.46;100.00
60355;BME280;46198;51.464;-0.066;2023-02-11T13:20:20;103566.44;;;10.34;100.00
60355;BME280;46198;51.464;-0.066;2023-02-11T13:22:55;103569.97;;;10.44;100.00